createdAt,value
2023-02-19T00:00:47.655Z,87.00
2023-02-19T00:01:37.636Z,87.00
2023-02-19T00:02:27.631Z,87.20
2023-02-19T00:03:17.701Z,87.20
2023-02-19T00:04:07.610Z,87.20
2023-02-19T00:04:57.666Z,87.20
2023-02-19T00:05:47.574Z,87.10
2023-02-19T00:06:37.610Z,87.10
2023-02-19T00:07:27.555Z,87.41
2023-02-19T00:08:17.564Z,87.30
2023-02-19T00:09:07.550Z,87.41
2023-02-19T00:09:57.533Z,87.41
2023-02-19T00:10:47.523Z,87.71
2023-02-19T00:11:37.523Z,87.61
2023-02-19T00:12:27.511Z,87.30
2023-02-19T00:13:17.493Z,87.20
2023-02-19T00:14:07.523Z,87.41
2023-02-19T00:14:57.490Z,87.30
2023-02-19T00:15:47.503Z,87.41
2023-02-19T00:16:37.471Z,87.51
2023-02-19T00:17:27.554Z,87.30
2023-02-19T00:18:17.431Z,87.30
2023-02-19T00:19:07.438Z,87.30
2023-02-19T00:19:57.423Z,87.30
2023-02-19T00:20:47.428Z,87.30
2023-02-19T00:21:37.411Z,87.20
2023-02-19T00:22:27.412Z,87.20
2023-02-19T00:23:17.381Z,86.79
2023-02-19T00:24:07.371Z,86.18
2023-02-19T00:24:57.371Z,86.18
2023-02-19T00:25:47.353Z,86.38
2023-02-19T00:26:37.351Z,86.29
2023-02-19T00:27:27.332Z,85.97
2023-02-19T00:28:17.332Z,86.18
2023-02-19T00:29:07.315Z,86.29
2023-02-19T00:29:57.319Z,86.29
2023-02-19T00:30:47.355Z,86.18
2023-02-19T00:31:37.422Z,85.97
2023-02-19T00:32:27.282Z,86.18
2023-02-19T00:33:17.272Z,85.88
2023-02-19T00:34:07.277Z,85.77
2023-02-19T00:34:57.251Z,85.57
2023-02-19T00:35:47.253Z,85.47
2023-02-19T00:36:37.262Z,85.77
2023-02-19T00:37:27.222Z,85.47
2023-02-19T00:38:17.214Z,85.26
2023-02-19T00:39:07.229Z,85.36
2023-02-19T00:39:57.207Z,85.16
2023-02-19T00:40:47.206Z,85.06
2023-02-19T00:41:37.201Z,84.95
2023-02-19T00:42:27.189Z,84.75
2023-02-19T00:43:17.164Z,84.75
2023-02-19T00:44:07.169Z,84.65
2023-02-19T00:44:57.152Z,84.75
2023-02-19T00:45:47.131Z,84.75
2023-02-19T00:46:37.244Z,84.34
2023-02-19T00:47:27.132Z,83.93
2023-02-19T00:48:17.103Z,84.03
2023-02-19T00:49:07.119Z,83.83
2023-02-19T00:49:57.104Z,83.73
2023-02-19T00:50:47.073Z,83.93
2023-02-19T00:51:37.122Z,84.24
2023-02-19T00:52:27.085Z,83.73
2023-02-19T00:53:17.055Z,83.62
2023-02-19T00:54:07.042Z,84.03
2023-02-19T00:54:57.023Z,84.03
2023-02-19T00:55:47.014Z,84.14
2023-02-19T00:56:37.032Z,84.03
2023-02-19T00:57:27.009Z,83.93
2023-02-19T00:58:16.985Z,84.07
2023-02-19T00:59:06.982Z,84.48
2023-02-19T00:59:56.971Z,84.17
2023-02-19T01:00:46.983Z,83.97
2023-02-19T01:01:37.018Z,84.17
2023-02-19T01:02:26.962Z,84.38
2023-02-19T01:03:16.928Z,84.07
2023-02-19T01:04:07.074Z,84.07
2023-02-19T01:04:56.977Z,84.28
2023-02-19T01:05:46.906Z,84.48
2023-02-19T01:06:36.932Z,84.28
2023-02-19T01:07:26.897Z,84.17
2023-02-19T01:08:16.879Z,83.87
2023-02-19T01:09:06.889Z,83.87
2023-02-19T01:09:56.877Z,83.87
2023-02-19T01:10:46.860Z,83.97
2023-02-19T01:11:36.857Z,84.17
2023-02-19T01:12:26.833Z,84.07
2023-02-19T01:13:16.829Z,83.87
2023-02-19T01:14:06.827Z,84.17
2023-02-19T01:14:56.815Z,84.17
2023-02-19T01:15:46.871Z,84.28
2023-02-19T01:16:36.820Z,84.28
2023-02-19T01:17:26.778Z,84.17
2023-02-19T01:18:16.756Z,84.28
2023-02-19T01:19:06.773Z,84.17
2023-02-19T01:19:56.735Z,84.38
2023-02-19T01:20:46.737Z,84.17
2023-02-19T01:21:36.736Z,84.38
2023-02-19T01:22:26.738Z,84.28
2023-02-19T01:23:16.718Z,84.17
2023-02-19T01:24:06.705Z,83.76
2023-02-19T01:24:56.688Z,83.76
2023-02-19T01:25:46.701Z,83.76
2023-02-19T01:26:36.698Z,83.97
2023-02-19T01:27:26.669Z,83.76
2023-02-19T01:28:16.663Z,83.05
2023-02-19T01:29:06.644Z,83.66
2023-02-19T01:29:56.626Z,83.87
2023-02-19T01:30:46.667Z,83.76
2023-02-19T01:31:36.757Z,84.07
2023-02-19T01:32:26.603Z,84.01
2023-02-19T01:33:16.613Z,84.01
2023-02-19T01:34:06.612Z,83.81
2023-02-19T01:34:56.605Z,83.81
2023-02-19T01:35:46.562Z,83.70
2023-02-19T01:36:36.562Z,83.70
2023-02-19T01:37:26.545Z,84.42
2023-02-19T01:38:16.561Z,84.01
2023-02-19T01:39:06.539Z,83.70
2023-02-19T01:39:56.523Z,84.01
2023-02-19T01:40:46.504Z,83.91
2023-02-19T01:41:36.527Z,84.22
2023-02-19T01:42:26.503Z,84.22
2023-02-19T01:43:16.490Z,84.11
2023-02-19T01:44:06.490Z,84.01
2023-02-19T01:44:56.474Z,83.70
2023-02-19T01:45:46.453Z,83.50
2023-02-19T01:46:36.510Z,83.60
2023-02-19T01:47:26.440Z,83.60
2023-02-19T01:48:16.434Z,83.39
2023-02-19T01:49:06.415Z,83.39
2023-02-19T01:49:56.404Z,83.70
2023-02-19T01:50:46.415Z,83.50
2023-02-19T01:51:36.403Z,83.70
2023-02-19T01:52:26.395Z,83.81
2023-02-19T01:53:16.383Z,83.81
2023-02-19T01:54:06.363Z,84.22
2023-02-19T01:54:56.421Z,83.81
2023-02-19T01:55:46.354Z,84.22
2023-02-19T01:56:36.374Z,84.22
2023-02-19T01:57:26.332Z,84.46
2023-02-19T01:58:16.326Z,84.66
2023-02-19T01:59:06.313Z,84.36
2023-02-19T01:59:56.381Z,84.36
2023-02-19T02:00:46.289Z,84.46
2023-02-19T02:01:36.349Z,84.11
2023-02-19T02:02:26.272Z,84.36
2023-02-19T02:03:16.277Z,84.25
2023-02-19T02:04:06.245Z,84.46
2023-02-19T02:04:56.283Z,84.77
2023-02-19T02:05:46.257Z,84.87
2023-02-19T02:06:36.252Z,85.58
2023-02-19T02:07:26.206Z,85.79
2023-02-19T02:08:16.263Z,86.10
2023-02-19T02:09:06.208Z,86.10
2023-02-19T02:09:56.198Z,86.44
2023-02-19T02:10:46.179Z,87.16
2023-02-19T02:11:36.190Z,87.37
2023-02-19T02:12:26.173Z,87.16
2023-02-19T02:13:16.144Z,86.34
2023-02-19T02:14:06.149Z,86.44
2023-02-19T02:14:56.134Z,86.24
2023-02-19T02:15:46.134Z,86.34
2023-02-19T02:16:36.135Z,86.44
2023-02-19T02:17:26.106Z,86.44
2023-02-19T02:18:16.106Z,86.55
2023-02-19T02:19:06.092Z,86.55
2023-02-19T02:19:56.093Z,86.55
2023-02-19T02:20:46.065Z,86.44
2023-02-19T02:21:36.060Z,86.14
2023-02-19T02:22:26.054Z,85.63
2023-02-19T02:23:16.045Z,85.72
2023-02-19T02:24:06.024Z,85.72
2023-02-19T02:24:56.014Z,85.93
2023-02-19T02:25:46.004Z,86.24
2023-02-19T02:26:36.014Z,85.83
2023-02-19T02:27:25.995Z,86.14
2023-02-19T02:28:15.994Z,86.04
2023-02-19T02:29:05.985Z,85.83
2023-02-19T02:29:55.962Z,85.31
2023-02-19T02:30:45.944Z,85.52
2023-02-19T02:31:36.109Z,85.72
2023-02-19T02:32:25.927Z,85.63
2023-02-19T02:33:15.923Z,86.04
2023-02-19T02:34:05.920Z,85.72
2023-02-19T02:34:55.921Z,85.93
2023-02-19T02:35:45.902Z,86.44
2023-02-19T02:36:35.916Z,85.72
2023-02-19T02:37:25.887Z,86.14
2023-02-19T02:38:15.864Z,85.83
2023-02-19T02:39:05.870Z,85.83
2023-02-19T02:39:55.854Z,86.55
2023-02-19T02:40:45.857Z,86.75
2023-02-19T02:41:35.843Z,86.75
2023-02-19T02:42:25.822Z,86.34
2023-02-19T02:43:15.832Z,87.47
2023-02-19T02:44:05.801Z,88.53
2023-02-19T02:44:55.791Z,87.61
2023-02-19T02:45:45.839Z,88.33
2023-02-19T02:46:35.800Z,88.43
2023-02-19T02:47:25.779Z,88.84
2023-02-19T02:48:15.777Z,89.56
2023-02-19T02:49:05.757Z,89.76
2023-02-19T02:49:55.742Z,89.97
2023-02-19T02:50:45.734Z,90.83
2023-02-19T02:51:35.764Z,91.44
2023-02-19T02:52:25.720Z,91.75
2023-02-19T02:53:15.691Z,91.65
2023-02-19T02:54:05.694Z,92.31
2023-02-19T02:54:55.688Z,92.21
2023-02-19T02:55:45.667Z,91.80
2023-02-19T02:56:35.686Z,91.38
2023-02-19T02:57:25.667Z,92.10
2023-02-19T02:58:15.657Z,92.93
2023-02-19T02:59:05.631Z,92.72
2023-02-19T02:59:55.620Z,92.10
2023-02-19T03:00:45.652Z,92.00
2023-02-19T03:01:35.637Z,93.54
2023-02-19T03:02:25.645Z,94.40
2023-02-19T03:03:15.592Z,94.20
2023-02-19T03:04:05.577Z,93.79
2023-02-19T03:04:55.560Z,93.99
2023-02-19T03:05:45.570Z,95.02
2023-02-19T03:06:35.558Z,95.74
2023-02-19T03:07:25.552Z,95.43
2023-02-19T03:08:15.542Z,94.71
2023-02-19T03:09:05.526Z,94.40
2023-02-19T03:09:55.525Z,94.61
2023-02-19T03:10:45.494Z,94.96
2023-02-19T03:11:35.507Z,94.76
2023-02-19T03:12:25.491Z,95.37
2023-02-19T03:13:15.480Z,94.96
2023-02-19T03:14:05.488Z,95.47
2023-02-19T03:14:55.449Z,95.78
2023-02-19T03:15:45.439Z,95.57
2023-02-19T03:16:35.529Z,95.37
2023-02-19T03:17:25.446Z,95.27
2023-02-19T03:18:15.418Z,94.65
2023-02-19T03:19:05.399Z,94.76
2023-02-19T03:19:55.414Z,94.65
2023-02-19T03:20:45.380Z,94.55
2023-02-19T03:21:35.394Z,94.76
2023-02-19T03:22:25.377Z,94.76
2023-02-19T03:23:15.365Z,94.24
2023-02-19T03:24:05.363Z,94.34
2023-02-19T03:24:55.355Z,93.93
2023-02-19T03:25:45.333Z,94.04
2023-02-19T03:26:35.343Z,93.83
2023-02-19T03:27:25.301Z,93.42
2023-02-19T03:28:15.302Z,93.07
2023-02-19T03:29:05.312Z,92.97
2023-02-19T03:29:55.293Z,93.17
2023-02-19T03:30:45.287Z,93.17
2023-02-19T03:31:35.339Z,92.97
2023-02-19T03:32:25.261Z,92.66
2023-02-19T03:33:15.244Z,92.35
2023-02-19T03:34:05.243Z,92.25
2023-02-19T03:34:55.241Z,92.35
2023-02-19T03:35:45.218Z,92.46
2023-02-19T03:36:35.219Z,92.66
2023-02-19T03:37:25.226Z,92.76
2023-02-19T03:38:15.203Z,92.55
2023-02-19T03:39:05.189Z,92.55
2023-02-19T03:39:55.169Z,92.76
2023-02-19T03:40:45.172Z,92.86
2023-02-19T03:41:35.153Z,93.07
2023-02-19T03:42:25.164Z,92.35
2023-02-19T03:43:15.143Z,92.66
2023-02-19T03:44:05.114Z,92.55
2023-02-19T03:44:55.130Z,92.14
2023-02-19T03:45:45.114Z,91.94
2023-02-19T03:46:35.111Z,92.14
2023-02-19T03:47:25.082Z,92.46
2023-02-19T03:48:15.070Z,92.04
2023-02-19T03:49:05.078Z,92.35
2023-02-19T03:49:55.066Z,92.04
2023-02-19T03:50:45.061Z,91.42
2023-02-19T03:51:35.039Z,91.53
2023-02-19T03:52:25.050Z,91.63
2023-02-19T03:53:15.040Z,91.33
2023-02-19T03:54:05.006Z,91.42
2023-02-19T03:54:55.022Z,91.33
2023-02-19T03:55:44.991Z,91.33
2023-02-19T03:56:34.991Z,91.63
2023-02-19T03:57:24.989Z,92.14
2023-02-19T03:58:14.981Z,92.25
2023-02-19T03:59:04.951Z,91.94
2023-02-19T03:59:54.961Z,91.84
2023-02-19T04:00:44.951Z,91.12
2023-02-19T04:01:34.941Z,91.22
2023-02-19T04:02:24.954Z,91.22
2023-02-19T04:03:14.911Z,91.53
2023-02-19T04:04:04.896Z,91.63
2023-02-19T04:04:54.910Z,91.63
2023-02-19T04:05:44.900Z,91.42
2023-02-19T04:06:34.887Z,91.53
2023-02-19T04:07:24.862Z,91.22
2023-02-19T04:08:14.853Z,91.22
2023-02-19T04:09:04.854Z,91.63
2023-02-19T04:09:54.846Z,91.53
2023-02-19T04:10:44.847Z,91.94
2023-02-19T04:11:34.843Z,92.55
2023-02-19T04:12:24.832Z,93.07
2023-02-19T04:13:14.809Z,93.48
2023-02-19T04:14:04.791Z,93.83
2023-02-19T04:14:54.812Z,93.63
2023-02-19T04:15:44.762Z,93.21
2023-02-19T04:16:34.861Z,93.73
2023-02-19T04:17:24.752Z,94.04
2023-02-19T04:18:14.751Z,94.45
2023-02-19T04:19:04.743Z,94.76
2023-02-19T04:19:54.731Z,94.04
2023-02-19T04:20:44.724Z,93.83
2023-02-19T04:21:34.708Z,93.83
2023-02-19T04:22:24.719Z,93.52
2023-02-19T04:23:14.687Z,93.01
2023-02-19T04:24:04.683Z,93.21
2023-02-19T04:24:54.669Z,92.50
2023-02-19T04:25:44.664Z,92.60
2023-02-19T04:26:34.672Z,92.80
2023-02-19T04:27:24.638Z,93.01
2023-02-19T04:28:14.642Z,92.70
2023-02-19T04:29:04.639Z,92.50
2023-02-19T04:29:54.631Z,92.08
2023-02-19T04:30:44.669Z,92.19
2023-02-19T04:31:34.708Z,91.99
2023-02-19T04:32:24.598Z,91.78
2023-02-19T04:33:14.587Z,91.67
2023-02-19T04:34:04.556Z,91.67
2023-02-19T04:34:54.567Z,91.74
2023-02-19T04:35:44.536Z,91.78
2023-02-19T04:36:34.545Z,91.02
2023-02-19T04:37:24.527Z,90.50
2023-02-19T04:38:14.521Z,90.50
2023-02-19T04:39:04.519Z,90.50
2023-02-19T04:39:54.495Z,89.99
2023-02-19T04:40:44.483Z,89.99
2023-02-19T04:41:34.494Z,90.61
2023-02-19T04:42:24.472Z,90.71
2023-02-19T04:43:14.473Z,91.02
2023-02-19T04:44:04.453Z,91.12
2023-02-19T04:44:54.448Z,90.91
2023-02-19T04:45:44.425Z,91.12
2023-02-19T04:46:34.429Z,90.71
2023-02-19T04:47:24.422Z,90.81
2023-02-19T04:48:14.402Z,90.91
2023-02-19T04:49:04.412Z,90.91
2023-02-19T04:49:54.385Z,90.30
2023-02-19T04:50:44.368Z,90.09
2023-02-19T04:51:34.375Z,90.50
2023-02-19T04:52:24.378Z,90.71
2023-02-19T04:53:14.365Z,90.81
2023-02-19T04:54:04.348Z,90.91
2023-02-19T04:54:54.328Z,91.02
2023-02-19T04:55:44.316Z,91.12
2023-02-19T04:56:34.310Z,91.22
2023-02-19T04:57:24.291Z,91.22
2023-02-19T04:58:14.299Z,91.53
2023-02-19T04:59:04.269Z,91.53
2023-02-19T04:59:54.260Z,91.53
2023-02-19T05:00:44.250Z,91.57
2023-02-19T05:01:34.304Z,90.95
2023-02-19T05:02:24.259Z,90.91
2023-02-19T05:03:14.242Z,90.91
2023-02-19T05:04:04.250Z,90.71
2023-02-19T05:04:54.229Z,91.33
2023-02-19T05:05:44.211Z,92.04
2023-02-19T05:06:34.202Z,92.14
2023-02-19T05:07:24.182Z,92.35
2023-02-19T05:08:14.172Z,92.40
2023-02-19T05:09:04.182Z,93.01
2023-02-19T05:09:54.151Z,93.01
2023-02-19T05:10:44.140Z,93.21
2023-02-19T05:11:34.145Z,93.42
2023-02-19T05:12:24.140Z,93.42
2023-02-19T05:13:14.169Z,93.32
2023-02-19T05:14:04.102Z,93.63
2023-02-19T05:14:54.110Z,93.73
2023-02-19T05:15:44.110Z,93.83
2023-02-19T05:16:34.095Z,94.04
2023-02-19T05:17:24.068Z,94.55
2023-02-19T05:18:14.048Z,94.90
2023-02-19T05:19:04.070Z,94.49
2023-02-19T05:19:54.048Z,94.59
2023-02-19T05:20:44.045Z,94.70
2023-02-19T05:21:34.017Z,95.31
2023-02-19T05:22:24.037Z,95.52
2023-02-19T05:23:14.017Z,95.52
2023-02-19T05:24:03.997Z,95.62
2023-02-19T05:24:53.981Z,95.93
2023-02-19T05:25:43.979Z,96.44
2023-02-19T05:26:33.986Z,96.34
2023-02-19T05:27:23.976Z,96.03
2023-02-19T05:28:13.964Z,96.55
2023-02-19T05:29:03.935Z,97.06
2023-02-19T05:29:53.937Z,97.16
2023-02-19T05:30:43.949Z,97.37
2023-02-19T05:31:34.114Z,97.62
2023-02-19T05:32:23.916Z,98.13
2023-02-19T05:33:13.885Z,98.54
2023-02-19T05:34:03.887Z,98.33
2023-02-19T05:34:53.875Z,98.85
2023-02-19T05:35:43.856Z,99.05
2023-02-19T05:36:33.863Z,98.54
2023-02-19T05:37:23.865Z,98.75
2023-02-19T05:38:13.846Z,99.26
2023-02-19T05:39:03.833Z,99.47
2023-02-19T05:39:53.807Z,98.65
2023-02-19T05:40:43.817Z,98.75
2023-02-19T05:41:33.811Z,98.96
2023-02-19T05:42:23.814Z,98.85
2023-02-19T05:43:13.777Z,98.85
2023-02-19T05:44:03.764Z,99.05
2023-02-19T05:44:53.757Z,98.33
2023-02-19T05:45:43.772Z,98.54
2023-02-19T05:46:33.800Z,98.85
2023-02-19T05:47:23.733Z,98.85
2023-02-19T05:48:13.749Z,98.96
2023-02-19T05:49:03.713Z,99.26
2023-02-19T05:49:53.708Z,99.37
2023-02-19T05:50:43.684Z,99.77
2023-02-19T05:51:33.680Z,99.99
2023-02-19T05:52:23.692Z,99.99
2023-02-19T05:53:13.674Z,99.99
2023-02-19T05:54:03.673Z,99.99
2023-02-19T05:54:53.634Z,99.99
2023-02-19T05:55:43.639Z,99.99
2023-02-19T05:56:33.628Z,99.99
2023-02-19T05:57:23.634Z,99.99
2023-02-19T05:58:13.604Z,99.99
2023-02-19T05:59:03.594Z,99.99
2023-02-19T05:59:53.606Z,99.99
2023-02-19T06:00:43.587Z,99.99
2023-02-19T06:01:33.596Z,99.99
2023-02-19T06:02:23.602Z,99.99
2023-02-19T06:03:13.543Z,99.99
2023-02-19T06:04:03.561Z,99.99
2023-02-19T06:04:53.546Z,99.99
2023-02-19T06:05:43.537Z,99.99
2023-02-19T06:06:33.510Z,99.99
2023-02-19T06:07:23.523Z,99.99
2023-02-19T06:08:13.503Z,99.99
2023-02-19T06:09:03.501Z,99.99
2023-02-19T06:09:53.471Z,99.99
2023-02-19T06:10:43.479Z,99.99
2023-02-19T06:11:33.477Z,99.99
2023-02-19T06:12:23.450Z,99.99
2023-02-19T06:13:13.450Z,99.99
2023-02-19T06:14:03.441Z,99.99
2023-02-19T06:14:53.421Z,99.99
2023-02-19T06:15:43.400Z,99.99
2023-02-19T06:16:33.401Z,99.99
2023-02-19T06:17:23.421Z,99.99
2023-02-19T06:18:13.412Z,99.99
2023-02-19T06:19:03.370Z,99.99
2023-02-19T06:19:53.378Z,99.99
2023-02-19T06:20:43.359Z,99.99
2023-02-19T06:21:33.352Z,99.99
2023-02-19T06:22:23.354Z,99.99
2023-02-19T06:23:13.339Z,99.99
2023-02-19T06:24:03.323Z,99.99
2023-02-19T06:24:53.300Z,99.99
2023-02-19T06:25:43.311Z,99.99
2023-02-19T06:26:33.313Z,99.99
2023-02-19T06:27:23.290Z,99.99
2023-02-19T06:28:13.261Z,99.99
2023-02-19T06:29:03.272Z,99.99
2023-02-19T06:29:53.267Z,99.99
2023-02-19T06:30:43.240Z,99.99
2023-02-19T06:31:33.337Z,99.99
2023-02-19T06:32:23.355Z,99.99
2023-02-19T06:33:13.236Z,99.99
2023-02-19T06:34:03.201Z,99.99
2023-02-19T06:34:53.206Z,99.99
2023-02-19T06:35:43.205Z,99.99
2023-02-19T06:36:33.181Z,99.99
2023-02-19T06:37:23.317Z,99.99
2023-02-19T06:38:13.193Z,99.99
2023-02-19T06:39:03.217Z,99.99
2023-02-19T06:39:53.146Z,99.99
2023-02-19T06:40:43.153Z,99.99
2023-02-19T06:41:33.122Z,99.99
2023-02-19T06:42:23.134Z,99.99
2023-02-19T06:43:13.114Z,99.99
2023-02-19T06:44:03.093Z,99.99
2023-02-19T06:44:53.102Z,99.99
2023-02-19T06:45:43.084Z,99.99
2023-02-19T06:46:33.082Z,99.99
2023-02-19T06:47:25.389Z,99.99
2023-02-19T06:48:13.053Z,99.99
2023-02-19T06:49:03.032Z,99.99
2023-02-19T06:49:53.024Z,99.99
2023-02-19T06:50:43.022Z,99.99
2023-02-19T06:51:33.034Z,99.99
2023-02-19T06:52:23.032Z,99.99
2023-02-19T06:53:13.009Z,99.99
2023-02-19T06:54:02.998Z,99.99
2023-02-19T06:54:52.991Z,99.99
2023-02-19T06:55:42.972Z,99.99
2023-02-19T06:56:32.969Z,99.99
2023-02-19T06:57:22.974Z,99.99
2023-02-19T06:58:12.951Z,99.99
2023-02-19T06:59:02.960Z,99.99
2023-02-19T06:59:52.917Z,99.99
2023-02-19T07:00:42.925Z,99.99
2023-02-19T07:01:32.904Z,99.99
2023-02-19T07:02:22.927Z,99.99
2023-02-19T07:03:12.877Z,99.99
2023-02-19T07:04:02.913Z,99.99
2023-02-19T07:04:52.866Z,99.99
2023-02-19T07:05:42.860Z,99.99
2023-02-19T07:06:32.856Z,99.99
2023-02-19T07:07:22.873Z,99.99
2023-02-19T07:08:12.833Z,99.99
2023-02-19T07:09:02.823Z,98.74
2023-02-19T07:09:52.796Z,98.22
2023-02-19T07:10:42.808Z,98.63
2023-02-19T07:11:32.805Z,98.63
2023-02-19T07:12:22.788Z,98.74
2023-02-19T07:13:12.787Z,99.15
2023-02-19T07:14:02.756Z,99.35
2023-02-19T07:14:52.736Z,99.56
2023-02-19T07:15:42.754Z,99.72
2023-02-19T07:16:32.839Z,99.99
2023-02-19T07:17:22.742Z,99.99
2023-02-19T07:18:12.711Z,99.99
2023-02-19T07:19:02.704Z,99.99
2023-02-19T07:19:52.700Z,99.99
2023-02-19T07:20:42.672Z,99.99
2023-02-19T07:21:32.684Z,99.99
2023-02-19T07:22:22.701Z,99.99
2023-02-19T07:23:12.655Z,99.99
2023-02-19T07:24:02.642Z,99.99
2023-02-19T07:24:52.631Z,99.99
2023-02-19T07:25:42.640Z,99.99
2023-02-19T07:26:32.619Z,99.99
2023-02-19T07:27:22.630Z,99.99
2023-02-19T07:28:12.591Z,99.99
2023-02-19T07:29:02.590Z,99.99
2023-02-19T07:29:52.570Z,99.99
2023-02-19T07:30:42.610Z,99.99
2023-02-19T07:31:32.661Z,99.87
2023-02-19T07:32:22.572Z,99.56
2023-02-19T07:33:12.530Z,98.84
2023-02-19T07:34:02.536Z,98.53
2023-02-19T07:34:52.511Z,97.71
2023-02-19T07:35:42.509Z,97.91
2023-02-19T07:36:32.514Z,98.12
2023-02-19T07:37:22.504Z,97.61
2023-02-19T07:38:12.471Z,97.40
2023-02-19T07:39:02.470Z,96.68
2023-02-19T07:39:52.461Z,96.53
2023-02-19T07:40:42.452Z,96.94
2023-02-19T07:41:32.471Z,97.15
2023-02-19T07:42:22.460Z,96.64
2023-02-19T07:43:12.431Z,96.12
2023-02-19T07:44:02.433Z,95.92
2023-02-19T07:44:52.401Z,95.71
2023-02-19T07:45:42.466Z,95.71
2023-02-19T07:46:32.395Z,95.92
2023-02-19T07:47:22.402Z,95.61
2023-02-19T07:48:12.372Z,95.61
2023-02-19T07:49:02.387Z,95.30
2023-02-19T07:49:52.365Z,94.68
2023-02-19T07:50:42.354Z,94.17
2023-02-19T07:51:32.351Z,93.04
2023-02-19T07:52:22.336Z,93.24
2023-02-19T07:53:12.315Z,93.76
2023-02-19T07:54:02.306Z,94.17
2023-02-19T07:54:52.314Z,94.89
2023-02-19T07:55:42.283Z,94.48
2023-02-19T07:56:32.281Z,94.48
2023-02-19T07:57:22.287Z,94.89
2023-02-19T07:58:12.253Z,95.30
2023-02-19T07:59:02.260Z,95.81
2023-02-19T07:59:52.258Z,95.09
2023-02-19T08:00:42.249Z,94.89
2023-02-19T08:01:32.275Z,94.89
2023-02-19T08:02:22.241Z,94.99
2023-02-19T08:03:12.283Z,95.30
2023-02-19T08:04:02.204Z,95.81
2023-02-19T08:04:52.180Z,95.20
2023-02-19T08:05:42.199Z,95.40
2023-02-19T08:06:32.165Z,96.12
2023-02-19T08:07:22.182Z,96.64
2023-02-19T08:08:12.149Z,96.02
2023-02-19T08:09:02.137Z,95.50
2023-02-19T08:09:52.139Z,95.61
2023-02-19T08:10:42.125Z,95.40
2023-02-19T08:11:32.114Z,95.81
2023-02-19T08:12:22.145Z,95.81
2023-02-19T08:13:12.082Z,95.71
2023-02-19T08:14:02.107Z,95.30
2023-02-19T08:14:52.090Z,95.40
2023-02-19T08:15:42.081Z,96.02
2023-02-19T08:16:42.596Z,96.22
2023-02-19T08:17:23.078Z,95.92
2023-02-19T08:18:12.040Z,95.92
2023-02-19T08:19:02.026Z,96.02
2023-02-19T08:19:52.025Z,95.81
2023-02-19T08:20:42.001Z,95.09
2023-02-19T08:21:34.208Z,95.61
2023-02-19T08:22:22.024Z,95.92
2023-02-19T08:23:11.989Z,96.12
2023-02-19T08:24:01.971Z,95.71
2023-02-19T08:24:51.957Z,95.61
2023-02-19T08:25:41.964Z,95.71
2023-02-19T08:26:31.943Z,95.30
2023-02-19T08:27:21.945Z,95.20
2023-02-19T08:28:11.913Z,94.78
2023-02-19T08:29:01.906Z,94.58
2023-02-19T08:29:51.896Z,94.58
2023-02-19T08:30:42.034Z,95.09
2023-02-19T08:31:32.014Z,95.61
2023-02-19T08:32:21.889Z,94.89
2023-02-19T08:33:11.857Z,95.40
2023-02-19T08:34:01.865Z,95.30
2023-02-19T08:34:51.846Z,95.50
2023-02-19T08:35:41.853Z,95.40
2023-02-19T08:36:31.836Z,95.50
2023-02-19T08:37:21.834Z,95.81
2023-02-19T08:38:11.804Z,95.81
2023-02-19T08:39:01.793Z,96.33
2023-02-19T08:39:51.804Z,96.73
2023-02-19T08:40:41.765Z,97.25
2023-02-19T08:41:31.774Z,97.45
2023-02-19T08:42:21.781Z,97.56
2023-02-19T08:43:11.763Z,97.87
2023-02-19T08:44:01.732Z,98.12
2023-02-19T08:44:51.742Z,98.33
2023-02-19T08:45:41.753Z,98.63
2023-02-19T08:46:34.047Z,98.74
2023-02-19T08:47:21.720Z,99.05
2023-02-19T08:48:11.702Z,98.43
2023-02-19T08:49:01.690Z,97.81
2023-02-19T08:49:51.671Z,97.40
2023-02-19T08:50:41.686Z,97.19
2023-02-19T08:51:31.678Z,97.40
2023-02-19T08:52:21.652Z,97.91
2023-02-19T08:53:11.631Z,98.18
2023-02-19T08:54:01.627Z,98.38
2023-02-19T08:54:51.628Z,97.36
2023-02-19T08:55:41.618Z,96.99
2023-02-19T08:56:31.631Z,97.15
2023-02-19T08:57:21.599Z,97.05
2023-02-19T08:58:11.585Z,97.05
2023-02-19T08:59:01.578Z,95.09
2023-02-19T08:59:51.568Z,93.96
2023-02-19T09:00:41.537Z,94.58
2023-02-19T09:01:31.570Z,95.40
2023-02-19T09:02:21.546Z,94.68
2023-02-19T09:03:11.517Z,94.68
2023-02-19T09:04:01.579Z,94.99
2023-02-19T09:04:51.496Z,95.61
2023-02-19T09:05:41.490Z,95.50
2023-02-19T09:06:31.482Z,94.78
2023-02-19T09:07:21.477Z,95.61
2023-02-19T09:08:11.478Z,95.92
2023-02-19T09:09:01.447Z,95.81
2023-02-19T09:09:51.447Z,95.40
2023-02-19T09:10:41.425Z,95.71
2023-02-19T09:11:31.425Z,96.64
2023-02-19T09:12:21.437Z,96.64
2023-02-19T09:13:11.405Z,97.05
2023-02-19T09:14:01.404Z,97.25
2023-02-19T09:14:51.394Z,97.36
2023-02-19T09:15:41.414Z,95.81
2023-02-19T09:16:31.395Z,95.61
2023-02-19T09:17:21.378Z,96.64
2023-02-19T09:18:11.362Z,96.53
2023-02-19T09:19:01.333Z,96.84
2023-02-19T09:19:51.326Z,97.15
2023-02-19T09:20:41.334Z,96.12
2023-02-19T09:21:31.329Z,96.43
2023-02-19T09:22:21.314Z,97.05
2023-02-19T09:23:11.316Z,95.30
2023-02-19T09:24:01.309Z,94.58
2023-02-19T09:24:51.291Z,94.78
2023-02-19T09:25:41.285Z,95.30
2023-02-19T09:26:31.279Z,95.50
2023-02-19T09:27:21.269Z,94.68
2023-02-19T09:28:11.239Z,95.09
2023-02-19T09:29:01.249Z,95.30
2023-02-19T09:29:51.232Z,95.30
2023-02-19T09:30:41.300Z,95.61
2023-02-19T09:31:31.292Z,95.71
2023-02-19T09:32:21.224Z,95.61
2023-02-19T09:33:11.186Z,95.56
2023-02-19T09:34:01.194Z,95.87
2023-02-19T09:34:51.185Z,96.39
2023-02-19T09:35:41.157Z,96.48
2023-02-19T09:36:31.153Z,96.90
2023-02-19T09:37:21.166Z,96.80
2023-02-19T09:38:11.147Z,95.97
2023-02-19T09:39:01.129Z,95.25
2023-02-19T09:39:51.118Z,95.05
2023-02-19T09:40:41.097Z,95.46
2023-02-19T09:41:31.123Z,95.25
2023-02-19T09:42:21.118Z,95.25
2023-02-19T09:43:11.085Z,95.05
2023-02-19T09:44:01.071Z,94.74
2023-02-19T09:44:51.063Z,95.25
2023-02-19T09:45:41.056Z,95.46
2023-02-19T09:46:31.131Z,95.36
2023-02-19T09:47:21.073Z,95.56
2023-02-19T09:48:11.036Z,95.97
2023-02-19T09:49:01.022Z,96.22
2023-02-19T09:49:51.006Z,95.50
2023-02-19T09:50:41.010Z,95.46
2023-02-19T09:51:30.982Z,95.87
2023-02-19T09:52:20.994Z,96.39
2023-02-19T09:53:10.965Z,96.28
2023-02-19T09:54:00.963Z,96.28
2023-02-19T09:54:50.942Z,97.41
2023-02-19T09:55:40.926Z,96.84
2023-02-19T09:56:32.646Z,97.25
2023-02-19T09:57:20.921Z,96.84
2023-02-19T09:58:10.910Z,96.22
2023-02-19T09:59:00.890Z,97.05
2023-02-19T09:59:50.898Z,97.45
2023-02-19T10:00:40.872Z,97.45
2023-02-19T10:01:30.895Z,97.82
2023-02-19T10:02:20.890Z,97.82
2023-02-19T10:03:10.847Z,97.10
2023-02-19T10:04:00.833Z,96.59
2023-02-19T10:04:50.884Z,96.80
2023-02-19T10:05:40.808Z,96.08
2023-02-19T10:06:30.827Z,95.36
2023-02-19T10:07:20.821Z,96.28
2023-02-19T10:08:10.808Z,95.56
2023-02-19T10:09:00.786Z,95.46
2023-02-19T10:09:50.778Z,95.46
2023-02-19T10:10:40.772Z,95.87
2023-02-19T10:11:30.747Z,96.75
2023-02-19T10:12:20.767Z,96.75
2023-02-19T10:13:10.747Z,96.03
2023-02-19T10:14:00.718Z,95.72
2023-02-19T10:14:50.715Z,95.42
2023-02-19T10:15:40.801Z,95.72
2023-02-19T10:16:30.707Z,95.62
2023-02-19T10:17:20.708Z,96.03
2023-02-19T10:18:11.315Z,95.72
2023-02-19T10:19:00.680Z,94.90
2023-02-19T10:19:50.689Z,94.59
2023-02-19T10:20:40.656Z,94.80
2023-02-19T10:21:30.679Z,94.49
2023-02-19T10:22:20.643Z,94.08
2023-02-19T10:23:10.615Z,93.67
2023-02-19T10:24:00.616Z,92.85
2023-02-19T10:24:50.623Z,92.54
2023-02-19T10:25:40.587Z,93.36
2023-02-19T10:26:30.617Z,94.18
2023-02-19T10:27:20.608Z,94.45
2023-02-19T10:28:10.565Z,93.36
2023-02-19T10:29:00.557Z,92.03
2023-02-19T10:29:50.569Z,92.29
2023-02-19T10:30:40.544Z,92.80
2023-02-19T10:31:30.662Z,93.21
2023-02-19T10:32:20.572Z,93.01
2023-02-19T10:33:10.518Z,93.01
2023-02-19T10:34:00.504Z,92.50
2023-02-19T10:34:50.504Z,92.40
2023-02-19T10:35:40.492Z,92.91
2023-02-19T10:36:32.118Z,93.42
2023-02-19T10:37:20.485Z,92.70
2023-02-19T10:38:10.473Z,92.40
2023-02-19T10:39:00.442Z,93.17
2023-02-19T10:39:50.438Z,91.84
2023-02-19T10:40:40.414Z,90.91
2023-02-19T10:41:30.425Z,91.94
2023-02-19T10:42:20.416Z,92.46
2023-02-19T10:43:10.395Z,92.66
2023-02-19T10:44:00.385Z,92.66